Time,TemperatureF,DewpointF,PressureIn,WindDirection,WindDirectionDegrees,WindSpeedMPH,WindSpeedGustMPH,Humidity,HourlyPrecipIn,Conditions,Clouds,dailyrainin,SolarRadiationWatts/m^2,SoftwareType,DateUTC
2013-03-03 00:21:00,41.0,28.0,-100.00,SSW,207,5.0,16.0,59,0.00,,,0.00,1.000000,,2013-03-03 08:21:00,
2013-03-03 00:31:00,41.0,28.0,-100.00,SSW,207,5.0,16.0,59,0.00,,,0.00,1.000000,,2013-03-03 08:31:00,
2013-03-03 00:41:00,41.0,28.0,-100.00,SSW,207,5.0,16.0,59,0.00,,,0.00,1.000000,,2013-03-03 08:41:00,
2013-03-03 00:51:00,39.0,32.0,-100.00,SSW,209,7.0,19.0,77,0.02,,,0.02,1.000000,,2013-03-03 08:51:00,
2013-03-03 01:21:00,39.0,32.0,-100.00,SSW,209,7.0,19.0,77,0.02,,,0.02,1.000000,,2013-03-03 09:21:00,
2013-03-03 01:32:00,39.0,32.0,-100.00,SSW,209,7.0,19.0,77,0.02,,,0.02,1.000000,,2013-03-03 09:32:00,
2013-03-03 01:41:00,39.0,32.0,-100.00,SSW,209,7.0,19.0,77,0.02,,,0.02,1.000000,,2013-03-03 09:41:00,
2013-03-03 01:51:00,40.0,31.0,-100.00,WSW,239,5.0,16.0,70,0.00,,,0.02,1.000000,,2013-03-03 09:51:00,
2013-03-03 02:11:00,40.0,31.0,-100.00,WSW,239,5.0,16.0,70,0.00,,,0.02,1.000000,,2013-03-03 10:11:00,
2013-03-03 02:21:00,40.0,31.0,-100.00,WSW,239,5.0,16.0,70,0.00,,,0.02,1.000000,,2013-03-03 10:21:00,
2013-03-03 02:32:00,40.0,31.0,-100.00,WSW,239,5.0,16.0,70,0.00,,,0.02,1.000000,,2013-03-03 10:32:00,
2013-03-03 02:42:00,40.0,31.0,-100.00,WSW,239,5.0,16.0,70,0.00,,,0.02,1.000000,,2013-03-03 10:42:00,
2013-03-03 02:51:00,38.0,31.0,-100.00,SSW,194,7.0,22.0,75,0.01,,,0.03,1.000000,,2013-03-03 10:51:00,
2013-03-03 03:11:00,38.0,31.0,-100.00,SSW,194,7.0,22.0,75,0.01,,,0.03,1.000000,,2013-03-03 11:11:00,
2013-03-03 03:21:00,38.0,31.0,-100.00,SSW,194,7.0,22.0,75,0.01,,,0.03,1.000000,,2013-03-03 11:21:00,
2013-03-03 03:31:00,38.0,31.0,-100.00,SSW,194,7.0,22.0,75,0.01,,,0.03,1.000000,,2013-03-03 11:31:00,
2013-03-03 03:41:00,38.0,31.0,-100.00,SSW,194,7.0,22.0,75,0.01,,,0.03,1.000000,,2013-03-03 11:41:00,
2013-03-03 03:51:00,38.0,31.0,-100.00,SSW,203,6.0,17.0,77,0.00,,,0.03,1.000000,,2013-03-03 11:51:00,
2013-03-03 04:11:00,38.0,31.0,-100.00,SSW,203,6.0,17.0,77,0.00,,,0.03,1.000000,,2013-03-03 12:11:00,
2013-03-03 04:21:00,38.0,31.0,-100.00,SSW,203,6.0,17.0,77,0.00,,,0.03,1.000000,,2013-03-03 12:21:00,
2013-03-03 04:32:00,38.0,31.0,-100.00,SSW,203,6.0,17.0,77,0.00,,,0.03,1.000000,,2013-03-03 12:32:00,
2013-03-03 04:42:00,38.0,31.0,-100.00,SSW,203,6.0,17.0,77,0.00,,,0.03,1.000000,,2013-03-03 12:42:00,
2013-03-03 04:51:00,37.0,31.0,-100.00,SSE,168,5.0,19.0,80,0.02,,,0.05,1.000000,,2013-03-03 12:51:00,
2013-03-03 05:11:00,37.0,31.0,-100.00,SSE,168,5.0,19.0,80,0.02,,,0.05,1.000000,,2013-03-03 13:11:00,
2013-03-03 05:21:00,37.0,31.0,-100.00,SSE,168,5.0,19.0,80,0.02,,,0.05,1.000000,,2013-03-03 13:21:00,
2013-03-03 05:32:00,37.0,31.0,-100.00,SSE,168,5.0,19.0,80,0.02,,,0.05,1.000000,,2013-03-03 13:32:00,
2013-03-03 05:41:00,37.0,31.0,-100.00,SSE,168,5.0,19.0,80,0.02,,,0.05,1.000000,,2013-03-03 13:41:00,
2013-03-03 05:51:00,37.0,31.0,-100.00,SSE,163,5.0,17.0,80,0.01,,,0.06,1.000000,,2013-03-03 13:51:00,
2013-03-03 06:21:00,37.0,31.0,-100.00,SSE,163,5.0,17.0,80,0.01,,,0.06,1.000000,,2013-03-03 14:21:00,
2013-03-03 06:32:00,37.0,31.0,-100.00,SSE,163,5.0,17.0,80,0.01,,,0.06,1.000000,,2013-03-03 14:32:00,
2013-03-03 06:42:00,37.0,31.0,-100.00,SSE,163,5.0,17.0,80,0.01,,,0.06,1.000000,,2013-03-03 14:42:00,
2013-03-03 06:51:00,36.0,31.0,-100.00,SSE,168,3.0,13.0,81,0.00,,,0.06,2.000000,,2013-03-03 14:51:00,
2013-03-03 07:11:00,36.0,31.0,-100.00,SSE,168,3.0,13.0,81,0.00,,,0.06,2.000000,,2013-03-03 15:11:00,
2013-03-03 07:22:00,36.0,31.0,-100.00,SSE,168,3.0,13.0,81,0.00,,,0.06,2.000000,,2013-03-03 15:22:00,
2013-03-03 07:32:00,36.0,31.0,-100.00,SSE,168,3.0,13.0,81,0.00,,,0.06,2.000000,,2013-03-03 15:32:00,
2013-03-03 07:42:00,36.0,31.0,-100.00,SSE,168,3.0,13.0,81,0.00,,,0.06,2.000000,,2013-03-03 15:42:00,
2013-03-03 07:51:00,37.0,32.0,-100.00,SSE,158,4.0,10.0,82,0.01,,,0.07,19.000000,,2013-03-03 15:51:00,
2013-03-03 08:12:00,37.0,32.0,-100.00,SSE,158,4.0,10.0,82,0.01,,,0.07,19.000000,,2013-03-03 16:12:00,
2013-03-03 08:21:00,37.0,32.0,-100.00,SSE,158,4.0,10.0,82,0.01,,,0.07,19.000000,,2013-03-03 16:21:00,
2013-03-03 08:31:00,37.0,32.0,-100.00,SSE,158,4.0,10.0,82,0.01,,,0.07,19.000000,,2013-03-03 16:31:00,
2013-03-03 08:41:00,37.0,32.0,-100.00,SSE,158,4.0,10.0,82,0.01,,,0.07,19.000000,,2013-03-03 16:41:00,
2013-03-03 08:51:00,37.0,32.0,-100.00,SE,143,3.0,7.0,83,0.02,,,0.09,63.000000,,2013-03-03 16:51:00,
2013-03-03 09:11:00,37.0,32.0,-100.00,SE,143,3.0,7.0,83,0.02,,,0.09,63.000000,,2013-03-03 17:11:00,
2013-03-03 09:22:00,37.0,32.0,-100.00,SE,143,3.0,7.0,83,0.02,,,0.09,63.000000,,2013-03-03 17:22:00,
2013-03-03 09:32:00,37.0,32.0,-100.00,SE,143,3.0,7.0,83,0.02,,,0.09,63.000000,,2013-03-03 17:32:00,
2013-03-03 09:42:00,37.0,32.0,-100.00,SE,143,3.0,7.0,83,0.02,,,0.09,63.000000,,2013-03-03 17:42:00,
2013-03-03 09:51:00,39.0,32.0,-100.00,South,175,3.0,12.0,76,0.02,,,0.11,115.000000,,2013-03-03 17:51:00,
2013-03-03 10:21:00,39.0,32.0,-100.00,South,175,3.0,12.0,76,0.02,,,0.11,115.000000,,2013-03-03 18:21:00,
2013-03-03 10:31:00,39.0,32.0,-100.00,South,175,3.0,12.0,76,0.02,,,0.11,115.000000,,2013-03-03 18:31:00,
2013-03-03 10:42:00,39.0,32.0,-100.00,South,175,3.0,12.0,76,0.02,,,0.11,115.000000,,2013-03-03 18:42:00,
2013-03-03 10:51:00,39.0,33.0,-100.00,WSW,256,0.0,7.0,79,0.03,,,0.14,159.000000,,2013-03-03 18:51:00,
2013-03-03 11:11:00,39.0,33.0,-100.00,WSW,256,0.0,7.0,79,0.03,,,0.14,159.000000,,2013-03-03 19:11:00,
2013-03-03 11:21:00,39.0,33.0,-100.00,WSW,256,0.0,7.0,79,0.03,,,0.14,159.000000,,2013-03-03 19:21:00,
2013-03-03 11:31:00,39.0,33.0,-100.00,WSW,256,0.0,7.0,79,0.03,,,0.14,159.000000,,2013-03-03 19:31:00,
2013-03-03 11:42:00,39.0,33.0,-100.00,WSW,256,0.0,7.0,79,0.03,,,0.14,159.000000,,2013-03-03 19:42:00,
2013-03-03 11:51:00,37.0,33.0,-100.00,NNW,337,0.0,3.0,86,0.09,,,0.23,112.000000,,2013-03-03 19:51:00,
2013-03-03 12:11:00,37.0,33.0,-100.00,NNW,337,0.0,3.0,86,0.09,,,0.23,112.000000,,2013-03-03 20:11:00,
2013-03-03 12:21:00,37.0,33.0,-100.00,NNW,337,0.0,3.0,86,0.09,,,0.23,112.000000,,2013-03-03 20:21:00,
2013-03-03 12:32:00,37.0,33.0,-100.00,NNW,337,0.0,3.0,86,0.09,,,0.23,112.000000,,2013-03-03 20:32:00,
2013-03-03 12:42:00,37.0,33.0,-100.00,NNW,337,0.0,3.0,86,0.09,,,0.23,112.000000,,2013-03-03 20:42:00,
2013-03-03 12:51:00,40.0,35.0,-100.00,WNW,292,0.0,3.0,81,0.05,,,0.28,173.000000,,2013-03-03 20:51:00,
2013-03-03 13:11:00,40.0,35.0,-100.00,WNW,292,0.0,3.0,81,0.05,,,0.28,173.000000,,2013-03-03 21:11:00,
2013-03-03 13:21:00,40.0,35.0,-100.00,WNW,292,0.0,3.0,81,0.05,,,0.28,173.000000,,2013-03-03 21:21:00,
2013-03-03 13:32:00,40.0,35.0,-100.00,WNW,292,0.0,3.0,81,0.05,,,0.28,173.000000,,2013-03-03 21:32:00,
2013-03-03 13:41:00,40.0,35.0,-100.00,WNW,292,0.0,3.0,81,0.05,,,0.28,173.000000,,2013-03-03 21:41:00,
2013-03-03 13:51:00,41.0,34.0,-100.00,SE,139,2.0,6.0,75,0.02,,,0.30,242.000000,,2013-03-03 21:51:00,
2013-03-03 14:11:00,41.0,34.0,-100.00,SE,139,2.0,6.0,75,0.02,,,0.30,242.000000,,2013-03-03 22:11:00,
2013-03-03 14:21:00,41.0,34.0,-100.00,SE,139,2.0,6.0,75,0.02,,,0.30,242.000000,,2013-03-03 22:21:00,
2013-03-03 14:31:00,41.0,34.0,-100.00,SE,139,2.0,6.0,75,0.02,,,0.30,242.000000,,2013-03-03 22:31:00,
2013-03-03 14:42:00,41.0,34.0,-100.00,SE,139,2.0,6.0,75,0.02,,,0.30,242.000000,,2013-03-03 22:42:00,
2013-03-03 14:51:00,39.0,33.0,-100.00,SSE,162,3.0,7.0,80,0.00,,,0.30,214.000000,,2013-03-03 22:51:00,
2013-03-03 15:11:00,39.0,33.0,-100.00,SSE,162,3.0,7.0,80,0.00,,,0.30,214.000000,,2013-03-03 23:11:00,
2013-03-03 15:21:00,39.0,33.0,-100.00,SSE,162,3.0,7.0,80,0.00,,,0.30,214.000000,,2013-03-03 23:21:00,
2013-03-03 15:31:00,39.0,33.0,-100.00,SSE,162,3.0,7.0,80,0.00,,,0.30,214.000000,,2013-03-03 23:31:00,
2013-03-03 15:41:00,39.0,33.0,-100.00,SSE,162,3.0,7.0,80,0.00,,,0.30,214.000000,,2013-03-03 23:41:00,
2013-03-03 15:51:00,40.0,32.0,-100.00,SE,145,3.0,6.0,73,0.00,,,0.30,185.000000,,2013-03-03 23:51:00,
2013-03-03 16:11:00,40.0,32.0,-100.00,SE,145,3.0,6.0,73,0.00,,,0.30,185.000000,,2013-03-04 00:11:00,
2013-03-03 16:21:00,40.0,32.0,-100.00,SE,145,3.0,6.0,73,0.00,,,0.30,185.000000,,2013-03-04 00:21:00,
2013-03-03 16:32:00,40.0,32.0,-100.00,SE,145,3.0,6.0,73,0.00,,,0.30,185.000000,,2013-03-04 00:32:00,
2013-03-03 16:41:00,40.0,32.0,-100.00,SE,145,3.0,6.0,73,0.00,,,0.30,185.000000,,2013-03-04 00:41:00,
2013-03-03 16:51:00,38.0,32.0,-100.00,SSE,156,3.0,8.0,78,0.00,,,0.30,85.000000,,2013-03-04 00:51:00,
2013-03-03 17:21:00,38.0,32.0,-100.00,SSE,156,3.0,8.0,78,0.00,,,0.30,85.000000,,2013-03-04 01:21:00,
2013-03-03 17:31:00,38.0,32.0,-100.00,SSE,156,3.0,8.0,78,0.00,,,0.30,85.000000,,2013-03-04 01:31:00,
2013-03-03 17:42:00,38.0,32.0,-100.00,SSE,156,3.0,8.0,78,0.00,,,0.30,85.000000,,2013-03-04 01:42:00,
2013-03-03 17:51:00,35.0,31.0,-100.00,SE,140,1.0,5.0,86,0.00,,,0.30,40.000000,,2013-03-04 01:51:00,
2013-03-03 18:11:00,35.0,31.0,-100.00,SE,140,1.0,5.0,86,0.00,,,0.30,40.000000,,2013-03-04 02:11:00,
2013-03-03 18:22:00,35.0,31.0,-100.00,SE,140,1.0,5.0,86,0.00,,,0.30,40.000000,,2013-03-04 02:22:00,
2013-03-03 18:31:00,35.0,31.0,-100.00,SE,140,1.0,5.0,86,0.00,,,0.30,40.000000,,2013-03-04 02:31:00,
2013-03-03 18:41:00,35.0,31.0,-100.00,SE,140,1.0,5.0,86,0.00,,,0.30,40.000000,,2013-03-04 02:41:00,
2013-03-03 18:51:00,29.0,27.0,-100.00,South,173,0.0,2.0,92,0.00,,,0.30,2.000000,,2013-03-04 02:51:00,
2013-03-03 19:21:00,29.0,27.0,-100.00,South,173,0.0,2.0,92,0.00,,,0.30,2.000000,,2013-03-04 03:21:00,
2013-03-03 19:32:00,29.0,27.0,-100.00,South,173,0.0,2.0,92,0.00,,,0.30,2.000000,,2013-03-04 03:32:00,
2013-03-03 19:41:00,29.0,27.0,-100.00,South,173,0.0,2.0,92,0.00,,,0.30,2.000000,,2013-03-04 03:41:00,
2013-03-03 19:51:00,30.0,28.0,-100.00,SSE,151,1.0,2.0,94,0.00,,,0.30,1.000000,,2013-03-04 03:51:00,
2013-03-03 20:22:00,30.0,28.0,-100.00,SSE,151,1.0,2.0,94,0.00,,,0.30,1.000000,,2013-03-04 04:22:00,
2013-03-03 20:32:00,30.0,28.0,-100.00,SSE,151,1.0,2.0,94,0.00,,,0.30,1.000000,,2013-03-04 04:32:00,
2013-03-03 20:42:00,30.0,28.0,-100.00,SSE,151,1.0,2.0,94,0.00,,,0.30,1.000000,,2013-03-04 04:42:00,
2013-03-03 20:51:00,31.0,30.0,-100.00,NE,41,1.0,3.0,95,0.00,,,0.30,1.000000,,2013-03-04 04:51:00,
2013-03-03 21:11:00,31.0,30.0,-100.00,NE,41,1.0,3.0,95,0.00,,,0.30,1.000000,,2013-03-04 05:11:00,
2013-03-03 21:22:00,31.0,30.0,-100.00,NE,41,1.0,3.0,95,0.00,,,0.30,1.000000,,2013-03-04 05:22:00,
2013-03-03 21:31:00,31.0,30.0,-100.00,NE,41,1.0,3.0,95,0.00,,,0.30,1.000000,,2013-03-04 05:31:00,
2013-03-03 21:42:00,31.0,30.0,-100.00,NE,41,1.0,3.0,95,0.00,,,0.30,1.000000,,2013-03-04 05:42:00,
2013-03-03 21:51:00,31.0,30.0,-100.00,South,176,0.0,2.0,95,0.00,,,0.30,1.000000,,2013-03-04 05:51:00,
2013-03-03 22:11:00,31.0,30.0,-100.00,South,176,0.0,2.0,95,0.00,,,0.30,1.000000,,2013-03-04 06:11:00,
2013-03-03 22:21:00,31.0,30.0,-100.00,South,176,0.0,2.0,95,0.00,,,0.30,1.000000,,2013-03-04 06:21:00,
2013-03-03 22:31:00,31.0,30.0,-100.00,South,176,0.0,2.0,95,0.00,,,0.30,1.000000,,2013-03-04 06:31:00,
2013-03-03 22:42:00,31.0,30.0,-100.00,South,176,0.0,2.0,95,0.00,,,0.30,1.000000,,2013-03-04 06:42:00,
2013-03-03 22:51:00,30.0,29.0,-100.00,SE,139,0.0,0.0,95,0.00,,,0.30,1.000000,,2013-03-04 06:51:00,
2013-03-03 23:21:00,30.0,29.0,-100.00,SE,139,0.0,0.0,95,0.00,,,0.30,1.000000,,2013-03-04 07:21:00,
2013-03-03 23:32:00,30.0,29.0,-100.00,SE,139,0.0,0.0,95,0.00,,,0.30,1.000000,,2013-03-04 07:32:00,
2013-03-03 23:41:00,30.0,29.0,-100.00,SE,139,0.0,0.0,95,0.00,,,0.30,1.000000,,2013-03-04 07:41:00,
2013-03-03 23:51:00,31.0,30.0,-100.00,SE,134,1.0,2.0,95,0.00,,,0.30,1.000000,,2013-03-04 07:51:00,